Accueil
METAR-TAF:

METAR-TAF

Aéroports :

Dakar, Sénégal

Aéroport international Léopold-Sédar-Senghor

latitude: 14-44N, longitude: 017-30W, altitude: 27 m

Observation

Le bulletin a été fait il y a 39 minutes, à 04:30 UTC
Vent 7 kt de sud-ouest, variant entre sud/sud-ouest et ouest
Température 26°C
Humidité 79%
Pression 1010 hPa
Visibilité 10 km ou plus
Quelques nuages à une hauteur de 1200 ft

METAR: GOOY 260430Z 23007KT 200V260 9999 FEW012 26/22 Q1010 NOSIG

Heure: 05:09 (05:09 UTC)


TAF: absent

Observations et prévisions météorologiques de plus de 4000 aéroports (messages METAR et TAF).

Les stations disponibles sont représentées par des disques jaunes et rouges sur la carte.

Passer la souris dessus pour voir le nom de la station.

Cliquer dessus pour voir les observations et prévisions météorologiques.

Pour changer de carte: cliquez sur les boutons verts avec une croix noire pour zoomer, sur le bouton vert avec un tiret pour effectuer un zoom arrière, ou sur les flèches vertes pour les cartes adjacentes.


METAR-TAF: